Time;durP1;ratioP1;P1;durP2;ratioP2;P2;SDS_P1;SDS_P2;PMS_P1;PMS_P2;Temp;Humidity;BMP_temperature;BMP_pressure;BME280_temperature;BME280_humidity;BME280_pressure;Samples;Min_cycle;Max_cycle;Signal;HPM_P1;HPM_P2
2021/06/11 00:02:22;;;;;;;19.00;16.12;;;;;;;13.37;100.00;98903.32;1693678;83;21140;-70
2021/06/11 00:04:48;;;;;;;17.98;16.12;;;;;;;13.35;100.00;98901.48;1660627;85;20883;-70
2021/06/11 00:07:15;;;;;;;17.80;15.90;;;;;;;13.36;100.00;98904.97;1658370;84;20947;-71
2021/06/11 00:09:43;;;;;;;17.57;15.30;;;;;;;13.35;100.00;98908.74;1658718;84;20872;-70
2021/06/11 00:12:12;;;;;;;18.48;15.28;;;;;;;13.35;100.00;98909.56;1693272;83;21487;-70
2021/06/11 00:14:42;;;;;;;19.10;15.58;;;;;;;13.38;100.00;98907.64;1688401;84;20946;-70
2021/06/11 00:17:09;;;;;;;23.67;16.15;;;;;;;13.38;100.00;98904.94;1694035;83;20839;-69
2021/06/11 00:19:37;;;;;;;18.07;16.27;;;;;;;13.36;100.00;98905.77;1717196;83;20985;-70
2021/06/11 00:22:05;;;;;;;18.15;16.07;;;;;;;13.35;100.00;98902.83;1688196;83;20895;-69
2021/06/11 00:24:32;;;;;;;18.55;16.12;;;;;;;13.34;100.00;98899.86;1690755;84;21491;-69
2021/06/11 00:26:59;;;;;;;24.12;16.02;;;;;;;13.31;100.00;98902.34;1688137;84;21138;-69
2021/06/11 00:29:25;;;;;;;18.35;16.45;;;;;;;13.29;100.00;98899.92;1660474;84;20923;-70
2021/06/11 00:31:52;;;;;;;19.70;16.75;;;;;;;13.28;100.00;98900.47;1659450;84;20886;-69
2021/06/11 00:34:19;;;;;;;20.23;17.37;;;;;;;13.31;100.00;98902.34;1683135;83;20958;-67
2021/06/11 00:36:46;;;;;;;18.25;16.32;;;;;;;13.34;100.00;98911.19;1691874;84;20998;-67
2021/06/11 00:39:13;;;;;;;18.73;16.80;;;;;;;13.35;100.00;98910.09;1691163;83;21656;-69
2021/06/11 00:41:40;;;;;;;19.67;17.20;;;;;;;13.34;100.00;98907.95;1634751;84;20946;-69
2021/06/11 00:44:07;;;;;;;28.05;17.98;;;;;;;13.32;100.00;98911.47;1691885;83;20998;-68
2021/06/11 00:46:34;;;;;;;26.27;18.67;;;;;;;13.29;100.00;98910.70;1698825;83;20934;-68
2021/06/11 00:49:01;;;;;;;21.90;19.37;;;;;;;13.29;100.00;98914.75;1659040;83;20943;-68
2021/06/11 00:51:28;;;;;;;29.70;22.52;;;;;;;13.28;100.00;98914.50;1645748;85;21153;-69
2021/06/11 00:53:55;;;;;;;30.65;24.98;;;;;;;13.31;100.00;98922.00;1688336;83;21329;-68
2021/06/11 00:56:24;;;;;;;23.77;21.20;;;;;;;13.29;100.00;98919.58;1695010;82;20938;-68
2021/06/11 00:58:50;;;;;;;25.65;21.55;;;;;;;13.27;100.00;98923.66;1688876;83;20971;-68
2021/06/11 01:01:17;;;;;;;26.00;19.32;;;;;;;13.27;100.00;98922.31;1663732;85;20907;-68
2021/06/11 01:03:44;;;;;;;21.65;17.32;;;;;;;13.27;100.00;98916.92;1619737;84;21091;-68
2021/06/11 01:06:11;;;;;;;22.02;17.55;;;;;;;13.31;100.00;98923.91;1640729;84;20950;-68
2021/06/11 01:08:39;;;;;;;24.50;18.57;;;;;;;13.32;100.00;98924.95;1637158;85;20923;-68
2021/06/11 01:11:06;;;;;;;28.85;20.40;;;;;;;13.34;100.00;98924.12;1650626;84;22203;-69
2021/06/11 01:13:35;;;;;;;19.12;17.12;;;;;;;13.34;100.00;98920.08;1655237;85;21585;-68
2021/06/11 01:16:01;;;;;;;21.10;17.65;;;;;;;13.36;100.00;98919.25;1686120;83;21126;-68
2021/06/11 01:18:28;;;;;;;23.27;19.15;;;;;;;13.38;100.00;98922.46;1692376;83;20930;-68
2021/06/11 01:20:56;;;;;;;20.68;18.45;;;;;;;13.40;100.00;98922.98;1693679;82;21021;-68
2021/06/11 01:23:44;;;;;;;21.12;17.27;;;;;;;13.40;100.00;98925.68;1676351;84;20942;-68
2021/06/11 01:26:32;;;;;;;24.67;16.62;;;;;;;13.42;100.00;98924.82;1684751;83;20954;-68
2021/06/11 01:29:20;;;;;;;20.43;18.17;;;;;;;13.43;100.00;98921.05;1698003;83;21142;-68
2021/06/11 01:31:52;;;;;;;19.27;16.90;;;;;;;13.45;100.00;98931.56;1688961;83;20847;-68
2021/06/11 01:34:27;;;;;;;21.87;16.73;;;;;;;13.43;100.00;98926.45;1686139;83;21368;-68
2021/06/11 01:37:05;;;;;;;19.87;15.58;;;;;;;13.42;100.00;98938.84;1689837;82;20962;-68
2021/06/11 01:39:32;;;;;;;20.08;16.17;;;;;;;13.42;100.00;98928.86;1684053;82;20922;-68
2021/06/11 01:41:59;;;;;;;22.60;16.07;;;;;;;13.42;100.00;98934.80;1654657;84;21320;-69
2021/06/11 01:44:27;;;;;;;23.37;16.77;;;;;;;13.42;100.00;98934.25;1687287;83;20855;-68
2021/06/11 01:46:55;;;;;;;18.95;16.70;;;;;;;13.41;100.00;98938.05;1663050;84;21686;-68
2021/06/11 01:49:22;;;;;;;19.67;16.52;;;;;;;13.41;100.00;98938.61;1654881;84;21475;-67
2021/06/11 01:51:48;;;;;;;20.80;17.23;;;;;;;13.39;100.00;98940.23;1619636;84;21366;-69
2021/06/11 01:54:15;;;;;;;19.45;16.75;;;;;;;13.39;100.00;98944.27;1688470;83;21097;-69
2021/06/11 01:56:43;;;;;;;20.43;17.52;;;;;;;13.40;100.00;98947.24;1664441;85;20935;-68
2021/06/11 01:59:21;;;;;;;20.95;17.35;;;;;;;13.40;100.00;98947.24;1686137;84;21516;-68
2021/06/11 02:01:47;;;;;;;21.70;16.97;;;;;;;13.40;100.00;98951.81;1647404;84;21025;-68
2021/06/11 02:04:14;;;;;;;20.90;16.10;;;;;;;13.40;100.00;98953.16;1687496;84;20879;-68
2021/06/11 02:06:42;;;;;;;21.17;16.55;;;;;;;13.39;100.00;98942.92;1662578;83;21090;-68
2021/06/11 02:09:09;;;;;;;21.80;16.43;;;;;;;13.40;100.00;98948.59;1697287;84;21393;-68
2021/06/11 02:11:36;;;;;;;18.60;15.57;;;;;;;13.40;100.00;98944.55;1663347;84;20883;-68
2021/06/11 02:14:04;;;;;;;19.73;16.73;;;;;;;13.42;100.00;98949.08;1661894;85;20919;-68
2021/06/11 02:16:30;;;;;;;17.75;15.88;;;;;;;13.44;100.00;98953.64;1687049;84;20879;-68
2021/06/11 02:19:01;;;;;;;19.20;17.00;;;;;;;13.45;100.00;98948.53;1693849;82;21128;-68
2021/06/11 02:21:29;;;;;;;21.17;16.25;;;;;;;13.47;100.00;98953.62;1665681;83;20839;-68
2021/06/11 02:23:56;;;;;;;23.52;16.85;;;;;;;13.48;100.00;98956.03;1689402;84;20886;-68
2021/06/11 02:26:23;;;;;;;21.68;16.35;;;;;;;13.49;100.00;98952.23;1663570;85;20962;-68
2021/06/11 02:28:50;;;;;;;18.02;15.23;;;;;;;13.49;100.00;98950.89;1686193;83;21025;-68
2021/06/11 02:31:21;;;;;;;18.40;15.97;;;;;;;13.51;100.00;98950.06;1663472;82;21770;-68
2021/06/11 02:33:49;;;;;;;19.67;16.00;;;;;;;13.54;100.00;98951.93;1687064;84;20840;-69
2021/06/11 02:36:16;;;;;;;20.62;16.20;;;;;;;13.52;100.00;98948.16;1685995;84;20915;-68
2021/06/11 02:38:43;;;;;;;23.05;15.53;;;;;;;13.53;100.00;98953.83;1695324;84;20894;-68
2021/06/11 02:41:14;;;;;;;19.05;16.57;;;;;;;13.53;100.00;98947.64;1689614;83;20994;-67
2021/06/11 02:43:42;;;;;;;26.40;17.42;;;;;;;13.54;100.00;98948.69;1643922;84;21267;-68
2021/06/11 02:46:44;;;;;;;19.82;16.80;;;;;;;13.55;100.00;98950.30;1689381;84;21535;-68
2021/06/11 02:49:30;;;;;;;17.60;15.38;;;;;;;13.56;100.00;98947.06;1687262;84;21396;-68
2021/06/11 02:51:58;;;;;;;19.95;15.35;;;;;;;13.57;100.00;98948.65;1655642;84;21388;-68
2021/06/11 02:54:39;;;;;;;17.90;15.90;;;;;;;13.57;100.00;98949.48;1654073;84;20882;-68
2021/06/11 02:57:36;;;;;;;22.45;16.65;;;;;;;13.59;100.00;98949.17;1654249;84;21143;-68
2021/06/11 03:00:06;;;;;;;18.45;14.40;;;;;;;13.60;100.00;98948.89;1626461;85;20961;-68
2021/06/11 03:02:37;;;;;;;19.70;15.95;;;;;;;13.64;100.00;98955.84;1632183;85;20981;-69
2021/06/11 03:05:05;;;;;;;18.67;16.67;;;;;;;13.68;100.00;98961.73;1659681;84;20982;-69
2021/06/11 03:07:33;;;;;;;;;;;;;;;13.69;100.00;98953.09;1660696;84;20988;-68
2021/06/11 03:10:04;;;;;;;21.48;16.02;;;;;;;13.73;100.00;98963.56;1656647;84;21144;-68
2021/06/11 03:12:32;;;;;;;17.70;14.87;;;;;;;13.74;100.00;98954.37;1656800;84;21011;-68
2021/06/11 03:14:58;;;;;;;;;;;;;;;13.76;100.00;98952.19;1640906;84;21537;-69
2021/06/11 03:17:30;;;;;;;17.23;15.43;;;;;;;13.78;100.00;98958.10;1610444;84;20379;-69
2021/06/11 03:20:01;;;;;;;29.80;16.55;;;;;;;13.81;100.00;98962.12;1657211;84;20929;-69
2021/06/11 03:22:42;;;;;;;24.12;16.35;;;;;;;13.85;100.00;98963.16;1639279;86;21147;-69
2021/06/11 03:25:23;;;;;;;18.80;15.48;;;;;;;13.87;100.00;98959.63;1602075;87;21101;-68
2021/06/11 03:27:55;;;;;;;16.40;14.30;;;;;;;13.89;100.00;98964.16;1655630;85;20932;-69
2021/06/11 03:30:24;;;;;;;18.25;13.62;;;;;;;13.90;100.00;98957.14;1643531;86;20992;-69
2021/06/11 03:33:07;;;;;;;15.40;13.15;;;;;;;13.91;100.00;98963.33;1641995;85;21518;-68
2021/06/11 03:35:42;;;;;;;18.60;14.80;;;;;;;13.93;100.00;98967.89;1636729;86;21151;-68
2021/06/11 03:38:13;;;;;;;17.95;14.78;;;;;;;13.94;100.00;98973.01;1701549;83;20900;-68
2021/06/11 03:40:41;;;;;;;17.15;14.25;;;;;;;13.96;100.00;98964.61;1659406;85;20973;-68
2021/06/11 03:43:10;;;;;;;19.98;15.20;;;;;;;13.99;100.00;98963.22;1693606;83;21001;-68
2021/06/11 03:45:39;;;;;;;15.15;13.55;;;;;;;14.00;100.00;98964.84;1690697;83;20891;-68
2021/06/11 03:48:07;;;;;;;20.37;14.25;;;;;;;14.04;100.00;98969.38;1649198;84;21172;-68
2021/06/11 03:50:40;;;;;;;17.35;13.75;;;;;;;14.06;100.00;98973.11;1687275;84;21076;-68
2021/06/11 03:53:10;;;;;;;19.00;14.98;;;;;;;14.11;100.00;98972.52;1618989;84;21068;-68
2021/06/11 03:55:45;;;;;;;26.17;16.10;;;;;;;14.12;100.00;98970.61;1688066;82;20892;-69
2021/06/11 03:58:23;;;;;;;16.80;14.40;;;;;;;14.18;100.00;98973.48;1683136;84;20919;-68
2021/06/11 04:00:57;;;;;;;21.40;15.35;;;;;;;14.20;100.00;98969.95;1683448;82;20981;-69
2021/06/11 04:03:24;;;;;;;17.07;15.25;;;;;;;14.19;100.00;98976.45;1688421;84;20875;-68
2021/06/11 04:06:14;;;;;;;17.30;14.33;;;;;;;14.23;100.00;98977.45;1637662;84;21037;-68
2021/06/11 04:08:42;;;;;;;23.50;16.32;;;;;;;14.26;100.00;98974.75;1699077;82;21084;-68
2021/06/11 04:11:17;;;;;;;19.65;15.38;;;;;;;14.29;100.00;98974.16;1690957;83;20871;-69
2021/06/11 04:13:49;;;;;;;20.72;13.95;;;;;;;14.32;100.00;98975.71;1661188;84;21130;-69
2021/06/11 04:16:22;;;;;;;15.83;14.03;;;;;;;14.35;100.00;98980.52;1691356;83;20844;-69
2021/06/11 04:18:51;;;;;;;14.55;13.05;;;;;;;14.43;100.00;98980.95;1688238;84;21281;-67
2021/06/11 04:21:22;;;;;;;16.85;13.78;;;;;;;14.48;100.00;98982.26;1689774;84;20888;-68
2021/06/11 04:23:52;;;;;;;14.98;12.95;;;;;;;14.49;100.00;98987.91;1690031;83;21021;-68
2021/06/11 04:26:22;;;;;;;17.65;13.05;;;;;;;14.50;100.00;98990.84;1694006;83;21741;-68
2021/06/11 04:28:49;;;;;;;17.20;13.03;;;;;;;14.52;100.00;98992.16;1661178;85;21334;-69
2021/06/11 04:31:15;;;;;;;33.98;12.70;;;;;;;14.57;100.00;98987.26;1660685;85;20876;-68
2021/06/11 04:33:42;;;;;;;17.50;13.25;;;;;;;14.59;100.00;98990.47;1694741;83;20976;-68
2021/06/11 04:36:10;;;;;;;16.60;13.15;;;;;;;14.62;100.00;98987.73;1658968;85;20955;-68
2021/06/11 04:39:01;;;;;;;18.00;13.40;;;;;;;14.65;100.00;98996.06;1687163;84;21128;-68
2021/06/11 04:41:29;;;;;;;17.37;13.53;;;;;;;14.68;100.00;98997.38;1690346;83;20934;-67
2021/06/11 04:43:59;;;;;;;14.98;13.38;;;;;;;14.78;100.00;98997.20;1652249;84;20882;-68
2021/06/11 04:46:26;;;;;;;14.78;13.22;;;;;;;14.79;100.00;98996.89;1700904;84;20938;-68
2021/06/11 04:48:55;;;;;;;17.23;15.57;;;;;;;14.90;100.00;98994.05;1692008;83;20982;-68
2021/06/11 04:51:22;;;;;;;15.83;13.95;;;;;;;15.00;100.00;99000.07;1657467;84;21129;-69
2021/06/11 04:53:51;;;;;;;14.38;12.78;;;;;;;15.08;100.00;99002.64;1636822;85;20923;-69
2021/06/11 04:56:17;;;;;;;18.27;13.40;;;;;;;15.20;100.00;99003.52;1684627;84;20883;-69
2021/06/11 04:58:49;;;;;;;13.65;12.23;;;;;;;15.36;100.00;99006.22;1656786;84;21361;-68
2021/06/11 05:01:16;;;;;;;16.95;11.88;;;;;;;15.35;100.00;99006.50;1689133;84;20883;-69
2021/06/11 05:03:48;;;;;;;15.58;12.28;;;;;;;15.34;100.00;99004.91;1642360;84;21158;-69
2021/06/11 05:06:15;;;;;;;14.05;12.55;;;;;;;15.34;100.00;99011.11;1662326;83;20876;-69
2021/06/11 05:08:45;;;;;;;;;;;;;;;15.36;100.00;99014.33;1645038;83;21577;-68
2021/06/11 05:11:30;;;;;;;14.63;12.90;;;;;;;15.41;100.00;99013.44;1599047;86;20195;-68
2021/06/11 05:13:58;;;;;;;14.90;13.20;;;;;;;15.50;100.00;99017.03;1644518;85;20931;-68
2021/06/11 05:16:26;;;;;;;13.57;11.53;;;;;;;15.54;100.00;99009.92;1637209;86;21905;-68
2021/06/11 05:18:55;;;;;;;15.28;13.10;;;;;;;15.51;100.00;99005.13;1645111;86;21015;-68
2021/06/11 05:21:28;;;;;;;15.53;12.05;;;;;;;15.47;100.00;99008.72;1638550;85;21443;-69
2021/06/11 05:23:58;;;;;;;16.75;13.25;;;;;;;15.46;100.00;99013.86;1628612;85;20986;-68
2021/06/11 05:26:26;;;;;;;16.35;12.03;;;;;;;15.51;100.00;99012.44;1620615;86;20992;-67
2021/06/11 05:28:55;;;;;;;13.38;11.28;;;;;;;15.61;100.00;99019.80;1635073;86;21071;-68
2021/06/11 05:31:54;;;;;;;18.87;10.82;;;;;;;15.68;100.00;99019.94;1626379;87;21026;-67
2021/06/11 05:34:26;;;;;;;13.72;11.63;;;;;;;15.68;100.00;99015.88;1592439;87;21013;-68
2021/06/11 05:36:53;;;;;;;28.65;12.13;;;;;;;15.62;100.00;99018.69;1644887;86;21068;-67
2021/06/11 05:39:20;;;;;;;12.45;11.15;;;;;;;15.65;100.00;99020.81;1641345;86;21551;-68
2021/06/11 05:41:46;;;;;;;14.23;11.48;;;;;;;15.71;100.00;99026.16;1655562;86;22047;-68
2021/06/11 05:44:13;;;;;;;14.35;12.85;;;;;;;15.76;100.00;99025.50;1625737;86;21610;-67
2021/06/11 05:46:40;;;;;;;15.60;11.57;;;;;;;15.75;100.00;99025.78;1612050;87;21445;-67
2021/06/11 05:49:07;;;;;;;13.60;12.15;;;;;;;15.76;100.00;99028.76;1650336;84;21196;-68
2021/06/11 05:51:34;;;;;;;12.13;11.03;;;;;;;15.81;100.00;99024.04;1660214;85;21432;-68
2021/06/11 05:54:02;;;;;;;13.25;11.08;;;;;;;15.88;100.00;99029.05;1643513;83;21748;-66
2021/06/11 05:56:28;;;;;;;14.28;10.78;;;;;;;16.03;100.00;99021.17;1677520;84;20985;-65
2021/06/11 05:58:55;;;;;;;16.62;11.45;;;;;;;16.11;100.00;99027.78;1674019;84;20983;-66
2021/06/11 06:01:23;;;;;;;15.20;10.50;;;;;;;16.12;100.00;99024.78;1670774;84;21025;-66
2021/06/11 06:03:54;;;;;;;11.50;10.30;;;;;;;16.23;100.00;99029.41;1648679;85;20906;-64
2021/06/11 06:06:23;;;;;;;12.98;10.13;;;;;;;16.33;100.00;99030.54;1668217;85;20979;-66
2021/06/11 06:08:52;;;;;;;;;;;;;;;16.43;100.00;99037.08;1672117;84;21034;-67
2021/06/11 06:11:19;;;;;;;13.58;9.78;;;;;;;16.56;100.00;99032.76;1652768;84;20441;-65
2021/06/11 06:13:47;;;;;;;14.85;10.45;;;;;;;16.73;100.00;99026.65;1670095;84;21015;-68
2021/06/11 06:28:57;;;;;;;10.72;9.15;;;;;;;17.51;100.00;99038.02;1628861;85;21107;-68
2021/06/11 06:32:34;;;;;;;10.10;9.08;;;;;;;17.58;100.00;99035.66;1620306;87;21019;-69
2021/06/11 06:35:32;;;;;;;13.20;8.80;;;;;;;17.76;100.00;99033.00;1582652;88;21060;-67
2021/06/11 06:37:59;;;;;;;9.83;8.45;;;;;;;17.98;100.00;99034.86;1584718;88;21134;-68
2021/06/11 06:40:26;;;;;;;9.00;8.18;;;;;;;18.01;100.00;99039.69;1582079;89;21008;-68
2021/06/11 06:42:52;;;;;;;10.32;8.63;;;;;;;17.88;100.00;99028.38;1563326;90;20966;-68
2021/06/11 06:45:20;;;;;;;11.45;7.67;;;;;;;18.08;100.00;99036.48;1581852;90;21538;-68
2021/06/11 06:47:46;;;;;;;12.07;8.77;;;;;;;18.33;100.00;99030.31;1561461;91;21100;-67
2021/06/11 06:50:18;;;;;;;9.00;8.10;;;;;;;18.39;100.00;99032.31;1577002;90;21202;-68
2021/06/11 06:52:45;;;;;;;8.15;7.08;;;;;;;18.84;100.00;99039.64;1583705;89;21039;-69
2021/06/11 06:55:14;;;;;;;7.65;6.58;;;;;;;19.30;100.00;99033.23;1602751;88;21054;-68
2021/06/11 06:57:41;;;;;;;15.43;6.85;;;;;;;19.69;100.00;99034.88;1603166;89;21396;-68
2021/06/11 07:00:10;;;;;;;7.53;6.70;;;;;;;19.83;100.00;99036.03;1563850;89;21093;-68
2021/06/11 07:02:37;;;;;;;9.63;6.92;;;;;;;20.12;100.00;99034.45;1582454;89;21176;-68
2021/06/11 07:05:05;;;;;;;6.53;5.75;;;;;;;20.36;100.00;99032.45;1607928;89;21139;-68
2021/06/11 07:07:32;;;;;;;8.50;5.87;;;;;;;20.74;100.00;99033.69;1597760;89;21023;-68
2021/06/11 07:09:59;;;;;;;7.75;5.05;;;;;;;21.07;100.00;99030.75;1586094;84;21014;-67
2021/06/11 07:12:27;;;;;;;7.65;4.87;;;;;;;21.18;100.00;99043.63;1699108;83;21005;-68
2021/06/11 07:14:54;;;;;;;9.90;4.80;;;;;;;21.55;100.00;99039.66;1686683;83;21147;-67
2021/06/11 07:17:20;;;;;;;7.50;5.20;;;;;;;21.48;100.00;99035.31;1691242;83;20870;-68
2021/06/11 07:19:47;;;;;;;5.67;5.12;;;;;;;21.39;100.00;99040.89;1694363;83;21048;-69
2021/06/11 07:22:14;;;;;;;7.53;5.00;;;;;;;21.40;100.00;99042.47;1691480;82;20974;-68
2021/06/11 07:24:41;;;;;;;8.00;4.72;;;;;;;21.60;100.00;99039.42;1700612;82;21499;-68
2021/06/11 07:27:08;;;;;;;5.63;5.13;;;;;;;21.92;100.00;99044.34;1691611;83;21367;-68
2021/06/11 07:29:42;;;;;;;10.60;5.65;;;;;;;21.83;100.00;99039.02;1691686;83;20969;-69
2021/06/11 07:32:06;;;;;;;5.62;5.12;;;;;;;21.59;100.00;99046.04;1692890;82;21063;-69
2021/06/11 07:34:33;;;;;;;9.68;5.53;;;;;;;21.71;100.00;99043.10;1684335;82;21405;-68
2021/06/11 07:37:00;;;;;;;5.97;4.95;;;;;;;22.03;100.00;99049.02;1668553;84;21343;-68
2021/06/11 07:43:04;;;;;;;6.45;4.20;;;;;;;21.78;100.00;99046.07;1665391;84;20962;-69
2021/06/11 07:45:43;;;;;;;7.87;4.78;;;;;;;21.50;100.00;99041.23;1596762;86;21028;-69
2021/06/11 07:48:12;;;;;;;6.95;5.22;;;;;;;21.89;100.00;99042.30;1570836;89;21176;-69
2021/06/11 07:50:40;;;;;;;5.75;4.83;;;;;;;22.24;100.00;99042.64;1571621;89;21523;-69
2021/06/11 07:53:11;;;;;;;7.25;4.97;;;;;;;22.16;100.00;99035.34;1598199;89;21110;-68
2021/06/11 07:55:40;;;;;;;6.40;4.85;;;;;;;21.80;100.00;99041.86;1599040;89;21051;-69
2021/06/11 07:58:08;;;;;;;5.65;4.22;;;;;;;22.28;100.00;99040.03;1552066;92;21084;-69
2021/06/11 08:00:36;;;;;;;4.83;4.30;;;;;;;22.28;100.00;99040.03;1584346;88;21110;-69
2021/06/11 08:03:03;;;;;;;5.17;4.37;;;;;;;21.91;100.00;99041.41;1599551;87;21152;-69
2021/06/11 08:05:32;;;;;;;5.87;4.70;;;;;;;22.12;100.00;99047.55;1592087;88;21370;-69
2021/06/11 08:07:59;;;;;;;6.17;4.75;;;;;;;22.29;100.00;99041.61;1628500;87;21008;-68
2021/06/11 08:10:27;;;;;;;4.95;4.45;;;;;;;22.24;100.00;99039.36;1622628;88;21043;-68
2021/06/11 08:12:56;;;;;;;6.25;5.03;;;;;;;22.40;100.00;99040.02;1670558;82;20935;-68
2021/06/11 08:15:22;;;;;;;6.92;4.40;;;;;;;22.79;100.00;99038.99;1649371;84;21029;-67
2021/06/11 08:17:49;;;;;;;6.30;4.33;;;;;;;22.66;95.93;99038.22;1692032;82;21108;-68
2021/06/11 08:20:16;;;;;;;4.67;4.25;;;;;;;22.96;99.00;99037.32;1706119;82;21072;-68
2021/06/11 08:22:43;;;;;;;13.40;7.00;;;;;;;22.90;95.95;99042.23;1672830;84;20950;-67
2021/06/11 08:25:12;;;;;;;6.10;5.00;;;;;;;23.23;97.64;99040.42;1663705;82;21183;-68
2021/06/11 08:27:39;;;;;;;5.70;4.20;;;;;;;23.29;99.73;99039.00;1642509;84;21050;-67
2021/06/11 08:30:09;;;;;;;5.60;4.10;;;;;;;23.78;91.65;99039.28;1651435;84;21131;-67
2021/06/11 08:32:40;;;;;;;9.33;4.62;;;;;;;23.80;83.61;99032.87;1676330;84;21448;-64
2021/06/11 08:35:08;;;;;;;5.58;4.37;;;;;;;23.75;85.44;99029.83;1662933;84;20933;-68
2021/06/11 08:37:34;;;;;;;;;;;;;;;23.47;87.89;99034.80;1676423;83;21045;-67
2021/06/11 08:40:02;;;;;;;14.03;4.57;;;;;;;23.82;90.02;99037.44;1703174;82;20140;-67
2021/06/11 08:42:31;;;;;;;6.55;3.80;;;;;;;24.01;87.05;99030.65;1685906;83;20913;-67
2021/06/11 08:45:05;;;;;;;4.95;4.05;;;;;;;23.60;82.49;99029.23;1664696;83;21116;-68
2021/06/11 08:47:34;;;;;;;6.58;4.03;;;;;;;23.53;85.31;99027.10;1690319;82;20890;-66
2021/06/11 08:50:00;;;;;;;4.40;4.00;;;;;;;23.95;80.11;99027.95;1686271;82;20987;-67
2021/06/11 08:52:28;;;;;;;6.50;4.15;;;;;;;23.69;76.52;99028.46;1704962;82;21371;-67
2021/06/11 08:54:55;;;;;;;5.60;4.30;;;;;;;23.83;82.44;99023.94;1691241;82;21036;-67
2021/06/11 08:57:23;;;;;;;5.12;3.80;;;;;;;24.12;76.21;99024.03;1682300;82;21045;-68
2021/06/11 08:59:52;;;;;;;;;;;;;;;23.75;74.48;99025.72;1690882;82;21046;-65
2021/06/11 09:02:20;;;;;;;9.23;4.28;;;;;;;23.48;77.61;99021.31;1668414;84;20463;-66
2021/06/11 09:04:52;;;;;;;4.58;4.03;;;;;;;24.02;77.55;99024.00;1692765;83;21457;-67
2021/06/11 09:07:29;;;;;;;4.30;3.75;;;;;;;24.45;75.44;99022.77;1708355;82;21152;-66
2021/06/11 09:10:00;;;;;;;5.08;3.72;;;;;;;24.46;73.19;99022.45;1676194;84;21094;-66
2021/06/11 09:12:37;;;;;;;7.40;3.92;;;;;;;24.15;71.95;99025.47;1690709;84;21055;-66
2021/06/11 09:15:11;;;;;;;5.87;4.15;;;;;;;24.34;75.02;99024.72;1671933;84;20997;-66
2021/06/11 09:17:42;;;;;;;5.95;4.00;;;;;;;24.89;70.00;99020.59;1686666;84;20993;-66
2021/06/11 09:20:16;;;;;;;6.10;4.10;;;;;;;24.98;69.12;99020.36;1694914;83;21178;-66
2021/06/11 09:23:00;;;;;;;6.97;4.15;;;;;;;24.67;71.36;99024.87;1688170;83;20971;-65
2021/06/11 09:25:35;;;;;;;5.65;3.60;;;;;;;24.90;69.70;99021.39;1694579;83;21418;-64
2021/06/11 09:28:07;;;;;;;6.22;3.80;;;;;;;24.50;69.15;99024.71;1692812;82;20929;-66
2021/06/11 09:30:43;;;;;;;8.75;3.75;;;;;;;24.51;69.18;99017.27;1688173;83;20938;-65
2021/06/11 09:33:13;;;;;;;8.93;3.98;;;;;;;24.68;66.06;99012.72;1680295;82;21134;-64
2021/06/11 09:35:42;;;;;;;6.35;4.95;;;;;;;24.43;63.59;99021.78;1654697;85;21393;-64
2021/06/11 09:38:21;;;;;;;9.95;4.35;;;;;;;24.24;65.12;99014.31;1700512;83;20955;-65
2021/06/11 09:40:59;;;;;;;5.25;4.03;;;;;;;24.18;67.23;99008.33;1689564;83;21632;-66
2021/06/11 09:43:26;;;;;;;6.28;3.65;;;;;;;23.92;68.13;99003.42;1683744;84;21000;-65
2021/06/11 09:46:09;;;;;;;5.78;4.35;;;;;;;23.44;71.28;99003.20;1684115;84;21129;-65
2021/06/11 09:48:49;;;;;;;6.08;4.28;;;;;;;23.37;76.98;99005.20;1676261;84;21431;-67
2021/06/11 09:51:27;;;;;;;8.45;4.55;;;;;;;24.04;75.13;99010.74;1685583;83;20878;-64
2021/06/11 09:53:51;;;;;;;4.45;3.75;;;;;;;24.00;73.29;99004.95;1697039;83;20890;-67
2021/06/11 09:56:26;;;;;;;5.10;4.03;;;;;;;23.50;68.81;99002.59;1693505;84;21235;-65
2021/06/11 09:59:08;;;;;;;9.93;4.15;;;;;;;23.36;72.98;98998.12;1601011;86;20989;-66
2021/06/11 10:01:34;;;;;;;4.65;3.50;;;;;;;23.81;71.60;99000.99;1622514;86;21480;-65
2021/06/11 10:04:02;;;;;;;5.55;4.00;;;;;;;24.20;68.98;99003.84;1619222;86;20947;-65
2021/06/11 10:06:29;;;;;;;7.15;4.42;;;;;;;24.72;72.28;99004.00;1654734;85;20994;-65
2021/06/11 10:08:55;;;;;;;6.27;4.20;;;;;;;25.12;66.18;98989.64;1633700;84;21493;-66
2021/06/11 10:11:25;;;;;;;4.95;3.80;;;;;;;24.86;62.71;99003.46;1643013;85;21226;-66
2021/06/11 10:13:50;;;;;;;6.83;3.92;;;;;;;24.67;60.56;98999.35;1659599;84;20982;-65
2021/06/11 10:16:20;;;;;;;8.18;4.20;;;;;;;24.51;63.56;99002.97;1629413;85;20912;-66
2021/06/11 10:18:47;;;;;;;13.03;3.83;;;;;;;24.66;60.68;98998.56;1674701;84;21036;-65
2021/06/11 10:21:14;;;;;;;;;;;;;;;24.88;61.39;98995.66;1649179;84;21289;-64
2021/06/11 10:23:41;;;;;;;6.57;4.20;;;;;;;25.21;60.56;98999.84;1677229;84;21100;-67
2021/06/11 10:26:10;;;;;;;6.08;4.08;;;;;;;25.48;59.72;98997.13;1683035;82;20892;-68
2021/06/11 10:28:50;;;;;;;8.83;4.37;;;;;;;25.45;59.15;98989.87;1695318;82;21103;-69
2021/06/11 10:31:21;;;;;;;6.58;4.05;;;;;;;25.69;58.22;98990.62;1691886;82;20926;-68
2021/06/11 10:33:51;;;;;;;11.53;4.00;;;;;;;25.99;56.31;98992.11;1680847;83;21456;-68
2021/06/11 10:36:33;;;;;;;5.40;3.55;;;;;;;26.04;54.34;98983.53;1669592;83;21189;-68
2021/06/11 10:39:13;;;;;;;5.97;3.83;;;;;;;25.78;53.27;98984.88;1678981;83;20981;-67
2021/06/11 10:42:12;;;;;;;5.80;3.60;;;;;;;25.29;52.79;98980.95;1700409;82;20969;-66
2021/06/11 10:44:53;;;;;;;7.40;3.67;;;;;;;25.22;52.90;98985.73;1683832;82;21397;-68
2021/06/11 10:47:24;;;;;;;5.25;3.95;;;;;;;25.41;54.89;98981.34;1696134;82;20976;-67
2021/06/11 10:50:02;;;;;;;4.67;3.33;;;;;;;25.86;53.43;98977.76;1664186;84;21116;-67
2021/06/11 10:52:39;;;;;;;7.05;3.70;;;;;;;25.98;50.48;98976.75;1672752;83;20986;-67
2021/06/11 10:55:21;;;;;;;4.80;3.47;;;;;;;26.11;52.37;98978.70;1666553;84;21015;-68
2021/06/11 10:58:00;;;;;;;10.08;3.80;;;;;;;26.29;51.62;98973.45;1690520;82;20842;-68
2021/06/11 11:00:35;;;;;;;4.60;3.80;;;;;;;26.37;53.38;98961.37;1675028;83;21484;-68
2021/06/11 11:03:05;;;;;;;4.22;3.83;;;;;;;26.63;52.28;98974.86;1702147;82;21134;-68
2021/06/11 11:05:40;;;;;;;3.95;3.10;;;;;;;26.21;52.23;98967.63;1688025;81;20977;-68
2021/06/11 11:08:08;;;;;;;4.97;3.83;;;;;;;26.21;50.35;98964.87;1685484;83;21057;-68
2021/06/11 11:10:43;;;;;;;5.92;3.35;;;;;;;25.87;49.42;98969.73;1681388;83;21003;-68
2021/06/11 11:13:26;;;;;;;6.58;3.85;;;;;;;25.43;50.59;98975.70;1689003;83;20969;-67
2021/06/11 11:15:55;;;;;;;8.25;4.40;;;;;;;25.39;52.70;98956.98;1674315;84;21107;-68
2021/06/11 11:18:40;;;;;;;7.33;4.65;;;;;;;25.00;53.84;98955.70;1666997;84;20930;-68
2021/06/11 11:21:37;;;;;;;4.70;3.80;;;;;;;25.39;53.03;98958.94;1670938;84;21057;-69
2021/06/11 11:24:06;;;;;;;;;;;;;;;25.44;52.71;98948.43;1663962;86;20929;-68
2021/06/11 11:26:48;;;;;;;5.03;3.42;;;;;;;25.62;54.10;98943.79;1665703;85;20085;-69
2021/06/11 11:29:17;;;;;;;9.55;4.20;;;;;;;25.73;52.60;98950.25;1630106;86;21123;-68
2021/06/11 11:31:46;;;;;;;6.25;3.67;;;;;;;25.92;54.24;98946.64;1654343;85;21035;-68
2021/06/11 11:34:13;;;;;;;4.78;3.85;;;;;;;25.96;52.44;98942.55;1704807;82;20889;-68
2021/06/11 11:36:39;;;;;;;7.12;3.90;;;;;;;25.86;52.39;98939.27;1688953;82;21050;-67
2021/06/11 11:39:09;;;;;;;9.93;4.23;;;;;;;25.94;50.57;98935.25;1687934;82;20992;-67
2021/06/11 11:41:36;;;;;;;13.25;4.78;;;;;;;25.32;51.68;98934.89;1692894;83;21314;-67
2021/06/11 11:44:04;;;;;;;8.30;4.33;;;;;;;24.82;57.68;98924.40;1684594;83;20905;-67
2021/06/11 11:46:32;;;;;;;5.05;3.55;;;;;;;24.91;55.82;98927.68;1698171;82;21044;-67
2021/06/11 11:48:58;;;;;;;4.90;4.30;;;;;;;25.07;57.61;98925.42;1676363;83;20906;-68
2021/06/11 11:51:25;;;;;;;5.17;3.90;;;;;;;25.38;54.80;98929.88;1683846;83;21446;-68
2021/06/11 11:53:52;;;;;;;5.25;4.30;;;;;;;25.72;50.41;98926.66;1666948;84;21118;-67
2021/06/11 11:56:18;;;;;;;5.28;4.10;;;;;;;26.06;48.87;98925.40;1675290;82;20945;-69